Van Horn, TX

3:24 PM CDT on July 05, 2015 (GMT -0500)
Guadalupe Pass | | Change Station
CLOSE
Current Station
Airport
Location: Guadalupe Pass,
Elevation: 5453 ft
Nearby Weather Stations

Elev 5453 ft 31.83 °N, 104.81 °W | Updated 33 minutes ago

Mostly Cloudy
Mostly Cloudy
89 °F
Feels Like 88 °F
N
14
Wind Variable Wind from SW
Gusts 21 mph

Today
High -- | Low -- °F
--% Chance of Precip.
Yesterday
High -- | Low -- °F
Precip. -- in
7:00 AM 9:06 PM
Waning Gibbous, 82% visible
Pressure 29.86 in
Visibility 10.0 miles
Clouds Clear
Heat Index 88 °F
Dew Point 57 °F
Humidity 34%
Rainfall 0.00 in
Snow Depth Not available.
UV 13 out of 12
Pollen 4.20 out of 12
Air Quality Not available.
Flu Activity Not available.
METAR KGDP 051951Z AUTO 23012G18KT 10SM CLR 32/14 A3014 RMK AO2 SLP112 T03170139

More Conditions Fewer Conditions

Pressure 29.86 in
Visibility 10.0 miles
Clouds Clear
Heat Index 88 °F
Dew Point 57 °F
Humidity 34%
Rainfall 0.00 in
Snow Depth Not available.
UV 13 out of 12
Pollen 4.20 out of 12
Air Quality Not available.
Flu Activity Not available.
METAR KGDP 051951Z AUTO 23012G18KT 10SM CLR 32/14 A3014 RMK AO2 SLP112 T03170139

More Conditions Fewer Conditions

10-Day Weather Forecast

×

Almanac

Astronomy

Jul. 05, 2015 Rise Set
Actual Time
Civil Twilight
Nautical Twilight
Astronomical Twilight
Moon
Length of Visible Light
Length of Day
Tomorrow will be .
, % of the Moon is Illuminated

Today's Extremes

State Highs State Lows

Community

WunderPhotos

Upload Photos

1,835,375 photos uploaded!

WunderBlogs® & News

Nearby

Air Quality

  Air Quality AQ Index Pollutant
Not available.

Snow Depth

Station Depth Elevation

Earthquake Activity

City Distance Mag. Time & Date
Minimum magnitude displayed is 2.5.

Coastal Water Temperatures

Place Temperature

Stations

Nearby Weather Stations

Station Location Temp. Windchill Dew Point Humidity Wind Precip. Elev Updated Type